Time;durP1;ratioP1;P1;durP2;ratioP2;P2;SDS_P1;SDS_P2;PMS_P1;PMS_P2;Temp;Humidity;BMP_temperature;BMP_pressure;BME280_temperature;BME280_humidity;BME280_pressure;Samples;Min_cycle;Max_cycle;Signal;HPM_P1;HPM_P2
2023/03/10 00:02:21;;;;;;;73.72;32.35;;;;;;;-3.10;100.00;98869.06;6212639;23;20029;-67
2023/03/10 00:04:49;;;;;;;70.22;33.33;;;;;;;-3.08;100.00;98869.78;6204536;23;20020;-62
2023/03/10 00:07:16;;;;;;;78.25;33.63;;;;;;;-3.08;100.00;98865.38;6214872;23;20012;-62
2023/03/10 00:09:43;;;;;;;73.80;32.80;;;;;;;-3.09;100.00;98855.84;6213970;23;20021;-62
2023/03/10 00:12:10;;;;;;;73.25;31.88;;;;;;;-3.10;100.00;98848.06;6212857;23;20021;-64
2023/03/10 00:14:36;;;;;;;74.68;32.35;;;;;;;-3.07;100.00;98853.09;6212931;23;20052;-62
2023/03/10 00:17:03;;;;;;;74.82;31.80;;;;;;;-3.08;100.00;98854.03;6201552;23;20019;-61
2023/03/10 00:19:30;;;;;;;68.20;31.38;;;;;;;-3.17;100.00;98855.59;6213265;23;20025;-63
2023/03/10 00:21:56;;;;;;;70.05;31.05;;;;;;;-3.10;100.00;98841.06;6212392;23;20013;-63
2023/03/10 00:24:23;;;;;;;66.82;29.02;;;;;;;-3.05;100.00;98843.31;6212798;23;20027;-63
2023/03/10 00:26:50;;;;;;;73.18;31.67;;;;;;;-3.05;100.00;98832.81;6213483;23;20093;-62
2023/03/10 00:29:17;;;;;;;71.78;32.22;;;;;;;-3.09;100.00;98823.53;6213273;23;20024;-62
2023/03/10 00:31:44;;;;;;;82.22;32.45;;;;;;;-3.08;100.00;98825.19;6212751;23;20020;-64
2023/03/10 00:34:11;;;;;;;71.45;31.23;;;;;;;-3.06;100.00;98821.50;6208778;23;20096;-62
2023/03/10 00:36:39;;;;;;;67.95;29.75;;;;;;;-3.07;100.00;98808.50;6211504;23;20020;-63
2023/03/10 00:39:06;;;;;;;68.03;29.60;;;;;;;-3.11;100.00;98802.66;6212146;23;20461;-64
2023/03/10 00:41:38;;;;;;;60.25;28.50;;;;;;;-3.21;100.00;98798.25;6212390;23;20368;-63
2023/03/10 00:44:08;;;;;;;66.80;29.23;;;;;;;-3.19;100.00;98797.19;6212354;23;20020;-61
2023/03/10 00:46:37;;;;;;;70.65;30.73;;;;;;;-3.15;100.00;98782.03;6212336;23;20483;-61
2023/03/10 00:49:08;;;;;;;67.05;29.35;;;;;;;-3.18;100.00;98784.91;6200068;23;20028;-64
2023/03/10 00:51:34;;;;;;;72.72;30.05;;;;;;;-3.12;100.00;98779.19;6212977;23;20025;-62
2023/03/10 00:54:02;;;;;;;65.60;27.98;;;;;;;-3.15;100.00;98768.91;6211376;23;20024;-64
2023/03/10 00:56:29;;;;;;;63.55;28.10;;;;;;;-3.13;100.00;98764.41;6191430;23;20044;-63
2023/03/10 00:58:58;;;;;;;68.28;29.50;;;;;;;-3.16;100.00;98762.03;6193973;23;20108;-62
2023/03/10 01:01:33;;;;;;;63.53;26.83;;;;;;;-3.18;100.00;98756.06;6211586;23;20099;-64
2023/03/10 01:04:03;;;;;;;63.67;28.23;;;;;;;-3.18;100.00;98750.81;6211952;23;20020;-64
2023/03/10 01:06:30;;;;;;;62.00;27.40;;;;;;;-3.17;100.00;98747.22;6211911;23;20029;-62
2023/03/10 01:08:57;;;;;;;69.97;27.50;;;;;;;-3.21;100.00;98744.00;6210805;23;20736;-65
2023/03/10 01:11:26;;;;;;;68.40;29.77;;;;;;;-3.15;100.00;98740.91;6212034;23;20088;-62
2023/03/10 01:13:56;;;;;;;61.67;28.90;;;;;;;-3.17;100.00;98728.84;6211570;23;20020;-62
2023/03/10 01:16:22;;;;;;;67.13;29.08;;;;;;;-3.20;100.00;98722.09;6212074;23;20103;-61
2023/03/10 01:18:49;;;;;;;66.10;28.83;;;;;;;-3.29;100.00;98702.66;6211290;23;20024;-61
2023/03/10 01:21:22;;;;;;;64.68;28.38;;;;;;;-3.32;100.00;98702.06;6211134;23;20047;-62
2023/03/10 01:23:49;;;;;;;61.97;27.02;;;;;;;-3.28;100.00;98685.13;6211316;23;20055;-63
2023/03/10 01:26:16;;;;;;;63.35;28.17;;;;;;;-3.30;100.00;98690.50;6212283;23;20012;-62
2023/03/10 01:28:44;;;;;;;64.20;27.63;;;;;;;-3.33;100.00;98688.13;6212603;23;20107;-61
2023/03/10 01:31:11;;;;;;;59.33;26.88;;;;;;;-3.31;100.00;98683.59;6211690;23;20095;-61
2023/03/10 01:33:39;;;;;;;61.75;28.65;;;;;;;-3.29;100.00;98671.19;6212880;23;20407;-61
2023/03/10 01:36:08;;;;;;;60.35;27.77;;;;;;;-3.31;100.00;98674.88;6211723;23;20023;-62
2023/03/10 01:38:35;;;;;;;61.90;27.17;;;;;;;-3.20;100.00;98668.81;6212804;23;20381;-62
2023/03/10 01:41:03;;;;;;;62.22;27.25;;;;;;;-3.19;100.00;98662.59;6207363;23;20032;-61
2023/03/10 01:43:31;;;;;;;62.30;29.02;;;;;;;-3.25;100.00;98648.19;6213435;23;20384;-61
2023/03/10 01:46:01;;;;;;;66.00;29.33;;;;;;;-3.23;100.00;98651.53;6214518;23;20020;-62
2023/03/10 01:48:31;;;;;;;75.85;31.33;;;;;;;-3.19;100.00;98633.75;6212310;23;20020;-63
2023/03/10 01:50:59;;;;;;;74.10;30.98;;;;;;;-3.24;100.00;98634.09;6214542;23;20027;-62
2023/03/10 01:53:27;;;;;;;77.55;32.85;;;;;;;-3.23;100.00;98629.72;6215486;23;20017;-61
2023/03/10 01:55:58;;;;;;;68.45;29.50;;;;;;;-3.30;100.00;98626.75;6215778;23;20044;-61
2023/03/10 01:58:31;;;;;;;71.90;29.48;;;;;;;-3.27;100.00;98618.66;6217015;23;20020;-63
2023/03/10 02:00:57;;;;;;;74.50;30.35;;;;;;;-3.32;100.00;98600.63;6215704;23;20048;-62
2023/03/10 02:03:33;;;;;;;72.50;29.65;;;;;;;-3.31;100.00;98599.69;6202163;23;20028;-62
2023/03/10 02:09:43;;;;;;;61.72;25.98;;;;;;;-3.31;100.00;98598.84;6214045;23;20055;-61
2023/03/10 02:12:12;;;;;;;72.55;28.20;;;;;;;-3.41;100.00;98571.69;6190400;23;20017;-62
2023/03/10 02:14:40;;;;;;;70.95;28.85;;;;;;;-3.44;100.00;98554.47;6219702;23;20045;-62
2023/03/10 02:17:10;;;;;;;72.40;29.13;;;;;;;-3.41;100.00;98588.28;6219725;23;20020;-61
2023/03/10 02:20:00;;;;;;;75.80;29.80;;;;;;;-3.31;100.00;98567.38;6218639;23;20088;-61
2023/03/10 02:22:27;;;;;;;59.53;25.70;;;;;;;-3.32;100.00;98555.22;6216077;23;20016;-60
2023/03/10 02:25:04;;;;;;;64.78;27.63;;;;;;;-3.42;100.00;98536.78;6217658;23;20020;-62
2023/03/10 02:27:34;;;;;;;63.65;25.92;;;;;;;-3.40;100.00;98542.75;6217504;23;20064;-63
2023/03/10 02:30:20;;;;;;;60.13;25.63;;;;;;;-3.46;100.00;98526.69;6217833;23;20044;-64
2023/03/10 02:32:50;;;;;;;58.38;25.00;;;;;;;-3.37;100.00;98525.94;6218587;23;20467;-61
2023/03/10 02:35:17;;;;;;;64.53;25.80;;;;;;;-3.41;100.00;98522.75;6218266;23;20048;-61
2023/03/10 02:37:44;;;;;;;59.22;25.60;;;;;;;-3.42;100.00;98515.00;6220213;23;20036;-60
2023/03/10 02:40:32;;;;;;;63.90;27.55;;;;;;;-3.34;100.00;98521.28;6193233;23;20075;-61
2023/03/10 02:43:24;;;;;;;59.70;23.10;;;;;;;-3.44;100.00;98504.66;6218665;23;20016;-61
2023/03/10 02:45:54;;;;;;;61.63;25.23;;;;;;;-3.37;100.00;98507.59;6208421;23;20476;-63
2023/03/10 02:48:28;;;;;;;63.50;25.67;;;;;;;-3.38;100.00;98498.88;6209588;23;20044;-62
2023/03/10 02:50:56;;;;;;;58.85;23.08;;;;;;;-3.44;100.00;98483.69;6209788;23;20047;-62
2023/03/10 02:53:25;;;;;;;64.57;24.83;;;;;;;-3.38;100.00;98498.88;6210390;23;20469;-63
2023/03/10 02:55:53;;;;;;;60.42;24.90;;;;;;;-3.37;100.00;98479.59;6210570;23;20100;-63
2023/03/10 02:58:20;;;;;;;62.33;24.40;;;;;;;-3.36;100.00;98476.00;6210873;23;20128;-63
2023/03/10 03:00:48;;;;;;;59.45;24.83;;;;;;;-3.32;100.00;98466.09;6210356;23;20027;-63
2023/03/10 03:03:17;;;;;;;59.40;23.10;;;;;;;-3.18;100.00;98465.78;6211443;23;20051;-64
2023/03/10 03:05:44;;;;;;;63.10;24.70;;;;;;;-3.24;100.00;98457.59;6208295;23;20036;-63
2023/03/10 03:08:11;;;;;;;56.63;23.50;;;;;;;-3.20;100.00;98453.78;6209943;23;20048;-62
2023/03/10 03:10:37;;;;;;;46.50;21.20;;;;;;;-3.21;100.00;98458.16;6211707;23;20020;-63
2023/03/10 03:13:05;;;;;;;50.75;21.10;;;;;;;-3.14;100.00;98448.00;6211466;23;20022;-63
2023/03/10 03:15:32;;;;;;;49.90;20.55;;;;;;;-3.19;100.00;98443.13;6210666;23;20027;-62
2023/03/10 03:17:58;;;;;;;54.53;21.40;;;;;;;-3.20;100.00;98438.03;6212841;23;20024;-62
2023/03/10 03:20:26;;;;;;;51.50;21.27;;;;;;;-3.28;100.00;98434.22;6209569;23;20024;-63
2023/03/10 03:22:53;;;;;;;55.08;21.90;;;;;;;-3.26;100.00;98433.28;6210187;23;20020;-63
2023/03/10 03:25:21;;;;;;;49.75;20.95;;;;;;;-3.21;100.00;98436.34;6210994;23;20025;-62
2023/03/10 03:27:48;;;;;;;54.67;22.33;;;;;;;-3.20;100.00;98436.25;6211124;23;20031;-62
2023/03/10 03:30:20;;;;;;;54.90;21.80;;;;;;;-3.16;100.00;98435.00;6210938;23;20052;-63
2023/03/10 03:32:49;;;;;;;51.90;21.38;;;;;;;-3.16;100.00;98434.19;6207690;23;20119;-64
2023/03/10 03:35:23;;;;;;;59.55;22.95;;;;;;;-3.19;100.00;98416.91;6194381;23;20103;-63
2023/03/10 03:37:51;;;;;;;57.65;23.38;;;;;;;-3.21;100.00;98407.50;6181476;23;20031;-62
2023/03/10 03:40:18;;;;;;;69.43;25.75;;;;;;;-3.25;100.00;98393.81;6211226;23;20382;-63
2023/03/10 03:42:48;;;;;;;55.70;22.50;;;;;;;-3.29;100.00;98395.03;6210420;23;20027;-62
2023/03/10 03:45:17;;;;;;;65.70;24.15;;;;;;;-3.30;100.00;98391.59;6211541;23;20349;-62
2023/03/10 03:47:43;;;;;;;55.25;23.75;;;;;;;-3.26;100.00;98389.56;6209936;23;20021;-63
2023/03/10 03:50:12;;;;;;;64.68;24.85;;;;;;;-3.23;100.00;98385.84;6211789;23;20020;-64
2023/03/10 03:52:38;;;;;;;55.30;23.35;;;;;;;-3.30;100.00;98368.00;6209932;23;20047;-65
2023/03/10 03:55:07;;;;;;;64.30;24.67;;;;;;;-3.26;100.00;98367.75;6210912;23;20024;-65
2023/03/10 03:57:34;;;;;;;60.40;23.77;;;;;;;-3.26;100.00;98359.88;6211285;23;20017;-64
2023/03/10 04:00:01;;;;;;;58.90;24.10;;;;;;;-3.30;100.00;98362.75;6212060;23;20327;-64
2023/03/10 04:02:27;;;;;;;57.58;23.92;;;;;;;-3.27;100.00;98364.31;6211239;23;20020;-63
2023/03/10 04:04:54;;;;;;;55.83;23.55;;;;;;;-3.30;100.00;98349.66;6210291;23;20344;-63
2023/03/10 04:07:21;;;;;;;57.88;23.30;;;;;;;-3.30;100.00;98349.66;6210831;23;20529;-63
2023/03/10 04:09:47;;;;;;;52.55;22.23;;;;;;;-3.20;100.00;98343.63;6211260;23;20561;-63
2023/03/10 04:12:14;;;;;;;54.38;22.92;;;;;;;-3.24;100.00;98336.97;6210376;23;20021;-63
2023/03/10 04:14:40;;;;;;;58.58;23.00;;;;;;;-3.24;100.00;98336.97;6208689;23;20021;-64
2023/03/10 04:17:07;;;;;;;52.92;21.48;;;;;;;-3.26;100.00;98344.97;6183292;23;20091;-64
2023/03/10 04:19:36;;;;;;;57.28;20.60;;;;;;;-3.21;100.00;98341.94;6209296;23;20021;-64
2023/03/10 04:22:02;;;;;;;47.72;20.92;;;;;;;-3.24;100.00;98334.34;6209846;23;20034;-64
2023/03/10 04:24:29;;;;;;;51.47;20.75;;;;;;;-3.23;100.00;98342.09;6208625;23;20025;-64
2023/03/10 04:26:56;;;;;;;52.47;21.63;;;;;;;-3.16;100.00;98339.78;6209075;23;20031;-63
2023/03/10 04:29:23;;;;;;;44.05;21.25;;;;;;;-3.16;100.00;98327.50;6210012;23;20036;-63
2023/03/10 04:31:50;;;;;;;47.55;21.05;;;;;;;-3.08;100.00;98329.44;6209549;23;20103;-62
2023/03/10 04:34:31;;;;;;;56.15;22.08;;;;;;;-3.05;100.00;98334.44;6207763;23;20386;-63
2023/03/10 04:36:58;;;;;;;60.17;22.63;;;;;;;-3.01;100.00;98329.75;6209096;23;20062;-64
2023/03/10 04:39:24;;;;;;;48.70;20.60;;;;;;;-3.00;100.00;98315.66;6208951;23;20021;-65
2023/03/10 04:41:51;;;;;;;60.90;24.75;;;;;;;-3.06;100.00;98330.97;6210570;23;20504;-64
2023/03/10 04:44:17;;;;;;;53.33;22.33;;;;;;;-3.01;100.00;98319.25;6210291;23;20031;-64
2023/03/10 04:46:57;;;;;;;61.75;24.33;;;;;;;-2.89;100.00;98320.81;6209863;23;20445;-64
2023/03/10 04:49:23;;;;;;;55.35;23.02;;;;;;;-2.89;100.00;98316.41;6209442;23;20016;-64
2023/03/10 04:51:50;;;;;;;63.85;25.23;;;;;;;-2.87;100.00;98301.34;6209111;23;20099;-64
2023/03/10 04:54:17;;;;;;;62.22;25.08;;;;;;;-2.79;100.00;98291.97;6209590;23;20051;-64
2023/03/10 04:56:43;;;;;;;55.35;24.58;;;;;;;-2.83;100.00;98288.78;6209668;23;20361;-65
2023/03/10 04:59:10;;;;;;;59.65;26.60;;;;;;;-2.87;100.00;98287.41;6209562;23;20357;-63
2023/03/10 05:01:36;;;;;;;61.00;25.58;;;;;;;-2.87;100.00;98285.59;6207588;23;20346;-64
2023/03/10 05:04:04;;;;;;;61.90;25.15;;;;;;;-2.85;100.00;98281.06;6210037;23;20020;-66
2023/03/10 05:06:31;;;;;;;59.15;24.95;;;;;;;-2.97;100.00;98276.88;6210906;23;20017;-65
2023/03/10 05:08:59;;;;;;;60.15;25.58;;;;;;;-2.99;100.00;98273.56;6209032;23;20021;-62
2023/03/10 05:11:26;;;;;;;63.08;24.95;;;;;;;-2.98;100.00;98275.22;6208703;23;20039;-64
2023/03/10 05:13:52;;;;;;;65.93;26.58;;;;;;;-2.94;100.00;98268.75;6209560;23;20031;-63
2023/03/10 05:16:20;;;;;;;64.28;26.88;;;;;;;-2.96;100.00;98264.59;6209670;23;20013;-63
2023/03/10 05:18:47;;;;;;;56.42;25.75;;;;;;;-2.99;100.00;98278.81;6206635;23;20099;-63
2023/03/10 05:21:14;;;;;;;50.30;23.63;;;;;;;-2.98;100.00;98256.88;6209320;23;20095;-64
2023/03/10 05:23:41;;;;;;;49.10;23.23;;;;;;;-2.94;100.00;98249.56;6206752;23;20025;-63
2023/03/10 05:26:09;;;;;;;55.70;24.33;;;;;;;-2.70;100.00;98241.31;6209968;23;20021;-62
2023/03/10 05:28:36;;;;;;;50.17;22.85;;;;;;;-2.70;100.00;98239.50;6180587;23;20353;-63
2023/03/10 05:31:08;;;;;;;53.13;22.55;;;;;;;-2.44;100.00;98237.19;6208798;23;20071;-63
2023/03/10 05:33:35;;;;;;;53.97;22.83;;;;;;;-1.00;100.00;98242.16;6209916;23;20020;-63
2023/03/10 05:36:10;;;;;;;53.95;23.15;;;;;;;-0.52;100.00;98227.84;6209883;23;20348;-63
2023/03/10 05:38:37;;;;;;;50.92;23.42;;;;;;;-1.14;100.00;98238.22;6209887;23;20048;-63
2023/03/10 05:41:08;;;;;;;57.30;24.00;;;;;;;-1.57;100.00;98246.72;6210125;23;20113;-63
2023/03/10 05:43:35;;;;;;;50.72;22.73;;;;;;;-1.71;100.00;98234.84;6209688;23;20016;-63
2023/03/10 05:46:03;;;;;;;53.83;23.33;;;;;;;-1.78;100.00;98231.16;6209136;23;20028;-64
2023/03/10 05:48:30;;;;;;;48.38;22.00;;;;;;;-1.58;100.00;98224.00;6209509;23;20108;-63
2023/03/10 05:50:58;;;;;;;53.17;23.40;;;;;;;-1.32;100.00;98215.47;6210318;23;20044;-63
2023/03/10 05:53:25;;;;;;;48.45;21.63;;;;;;;-1.48;100.00;98213.47;6207898;23;20396;-63
2023/03/10 05:55:53;;;;;;;46.47;21.17;;;;;;;-1.55;100.00;98217.63;6208621;23;20650;-63
2023/03/10 05:58:19;;;;;;;50.58;22.25;;;;;;;-1.44;100.00;98214.81;6209258;23;20024;-63
2023/03/10 06:00:46;;;;;;;50.15;21.33;;;;;;;-1.77;100.00;98214.41;6210030;23;20072;-62
2023/03/10 06:03:12;;;;;;;52.67;21.80;;;;;;;-1.64;100.00;98227.22;6210025;23;20056;-64
2023/03/10 06:05:39;;;;;;;51.45;22.85;;;;;;;-1.49;100.00;98211.81;6204843;23;20021;-64
2023/03/10 06:08:06;;;;;;;50.70;23.48;;;;;;;-1.40;100.00;98219.66;6210233;23;20026;-63
2023/03/10 06:10:32;;;;;;;52.10;22.80;;;;;;;-1.34;100.00;98220.03;6209539;23;20039;-63
2023/03/10 06:12:59;;;;;;;53.08;23.58;;;;;;;-1.39;100.00;98221.31;6210000;23;20016;-65
2023/03/10 06:15:25;;;;;;;51.03;24.25;;;;;;;-1.32;100.00;98223.38;6210415;23;20020;-63
2023/03/10 06:17:52;;;;;;;58.72;24.88;;;;;;;-1.33;100.00;98221.69;6209541;23;20472;-62
2023/03/10 06:20:18;;;;;;;50.55;23.27;;;;;;;-1.39;100.00;98217.84;6209445;23;20032;-63
2023/03/10 06:22:45;;;;;;;49.58;23.45;;;;;;;-1.56;100.00;98214.19;6211288;23;20027;-62
2023/03/10 06:25:12;;;;;;;56.25;24.73;;;;;;;-1.59;100.00;98206.59;6210530;23;20027;-62
2023/03/10 06:27:38;;;;;;;50.03;23.35;;;;;;;-1.61;100.00;98211.19;6209035;23;20434;-62
2023/03/10 06:30:05;;;;;;;53.70;22.45;;;;;;;-1.52;100.00;98206.84;6171474;23;20044;-62
2023/03/10 06:32:33;;;;;;;47.60;24.40;;;;;;;-1.54;100.00;98217.50;6210832;23;20024;-63
2023/03/10 06:35:00;;;;;;;47.42;23.30;;;;;;;-1.60;100.00;98212.81;6211000;23;20409;-62
2023/03/10 06:37:27;;;;;;;50.03;23.25;;;;;;;-1.67;100.00;98206.47;6189223;23;20021;-63
2023/03/10 06:39:53;;;;;;;51.33;23.27;;;;;;;-1.30;100.00;98205.63;6183563;23;20028;-64
2023/03/10 06:42:19;;;;;;;53.22;23.60;;;;;;;-1.34;100.00;98210.34;6210404;23;20461;-63
2023/03/10 06:44:46;;;;;;;53.47;24.50;;;;;;;-1.19;100.00;98213.34;6211596;23;20016;-63
2023/03/10 06:47:14;;;;;;;47.17;23.50;;;;;;;-1.38;100.00;98204.53;6185761;23;20037;-63
2023/03/10 06:49:41;;;;;;;55.75;26.27;;;;;;;-1.24;100.00;98199.78;6210494;23;20021;-62
2023/03/10 06:52:07;;;;;;;53.75;24.05;;;;;;;-1.20;100.00;98196.69;6211740;23;20039;-64
2023/03/10 06:54:35;;;;;;;52.78;24.95;;;;;;;-1.17;100.00;98195.59;6210872;23;20465;-64
2023/03/10 06:57:03;;;;;;;49.80;24.55;;;;;;;-1.40;100.00;98201.25;6212425;23;20052;-63
2023/03/10 06:59:31;;;;;;;62.00;25.35;;;;;;;-1.03;100.00;98199.50;6211245;23;20024;-64
2023/03/10 07:01:58;;;;;;;50.75;24.33;;;;;;;-1.37;100.00;98200.13;6211468;23;20012;-62
2023/03/10 07:04:24;;;;;;;61.30;25.48;;;;;;;-1.23;100.00;98196.16;6211988;23;20027;-65
2023/03/10 07:06:51;;;;;;;55.28;24.92;;;;;;;-1.23;100.00;98190.91;6205721;23;20025;-65
2023/03/10 07:09:17;;;;;;;52.90;25.33;;;;;;;-1.17;100.00;98196.41;6211407;23;20028;-64
2023/03/10 07:11:44;;;;;;;60.10;25.85;;;;;;;-1.25;100.00;98190.25;6209924;23;20362;-64
2023/03/10 07:14:10;;;;;;;53.58;24.85;;;;;;;-1.15;100.00;98188.38;6210995;23;20461;-64
2023/03/10 07:16:40;;;;;;;50.53;26.17;;;;;;;-0.87;100.00;98199.69;6211754;23;20028;-64
2023/03/10 07:19:06;;;;;;;55.45;25.35;;;;;;;-0.73;100.00;98193.09;6211378;23;20449;-64
2023/03/10 07:21:33;;;;;;;58.63;25.25;;;;;;;-0.71;100.00;98196.38;6211003;23;20032;-65
2023/03/10 07:23:59;;;;;;;52.45;27.65;;;;;;;-0.90;100.00;98187.66;6211399;23;20024;-64
2023/03/10 07:26:26;;;;;;;52.08;26.35;;;;;;;-1.06;100.00;98190.09;6211665;23;20075;-65
2023/03/10 07:28:53;;;;;;;54.90;25.90;;;;;;;-1.04;100.00;98192.59;6211673;23;20396;-65
2023/03/10 07:31:19;;;;;;;56.20;28.05;;;;;;;-1.00;100.00;98192.16;6211449;23;20028;-65
2023/03/10 07:33:48;;;;;;;68.25;29.17;;;;;;;-0.88;100.00;98192.78;6210889;23;20024;-65
2023/03/10 07:36:17;;;;;;;57.10;28.08;;;;;;;-0.74;100.00;98191.44;6211050;23;20027;-65
2023/03/10 07:38:44;;;;;;;57.80;27.80;;;;;;;-0.62;100.00;98195.50;6210586;23;20358;-65
2023/03/10 07:41:15;;;;;;;64.80;31.58;;;;;;;-0.43;100.00;98190.06;6210903;23;20048;-65
2023/03/10 07:43:41;;;;;;;41.65;20.98;;;;;;;-0.62;100.00;98184.13;6210693;23;20027;-65
2023/03/10 07:46:11;;;;;;;62.38;29.25;;;;;;;-0.55;100.00;98182.53;6210732;23;20157;-65
2023/03/10 07:48:38;;;;;;;61.78;30.25;;;;;;;-0.49;100.00;98180.13;6209937;23;20024;-65
2023/03/10 07:51:04;;;;;;;62.17;31.23;;;;;;;-0.37;100.00;98183.34;6211265;23;20024;-65
2023/03/10 07:53:32;;;;;;;64.03;30.52;;;;;;;-0.22;100.00;98192.38;6210297;23;20037;-64
2023/03/10 07:55:58;;;;;;;66.88;30.95;;;;;;;-0.37;100.00;98185.97;6205774;23;20021;-65
2023/03/10 07:58:25;;;;;;;67.10;32.83;;;;;;;-0.14;100.00;98181.06;6174231;23;20052;-65
2023/03/10 08:00:56;;;;;;;59.20;32.30;;;;;;;0.13;100.00;98188.00;6211570;23;20016;-65
2023/03/10 08:03:24;;;;;;;65.43;30.60;;;;;;;-0.02;100.00;98176.34;6211265;23;20104;-65
2023/03/10 08:05:51;;;;;;;63.13;32.30;;;;;;;0.08;100.00;98189.44;6211514;23;20693;-65
2023/03/10 08:08:18;;;;;;;72.32;33.47;;;;;;;0.10;100.00;98182.22;6211420;23;20021;-65
2023/03/10 08:10:45;;;;;;;70.45;34.40;;;;;;;0.04;100.00;98179.19;6210863;23;20330;-65
2023/03/10 08:13:12;;;;;;;62.85;34.33;;;;;;;0.19;100.00;98170.72;6209280;23;20083;-65
2023/03/10 08:15:39;;;;;;;66.50;35.25;;;;;;;0.25;100.00;98172.72;6209875;23;20075;-64
2023/03/10 08:18:06;;;;;;;73.13;33.88;;;;;;;0.15;100.00;98167.56;6184762;23;20070;-65
2023/03/10 08:20:36;;;;;;;72.32;35.47;;;;;;;0.24;100.00;98177.19;6210089;23;20449;-65
2023/03/10 08:23:03;;;;;;;72.47;36.97;;;;;;;0.35;100.00;98172.63;6209634;23;20020;-64
2023/03/10 08:25:30;;;;;;;69.30;36.60;;;;;;;0.35;100.00;98172.63;6210386;23;20030;-65
2023/03/10 08:27:56;;;;;;;65.60;34.40;;;;;;;0.50;100.00;98173.66;6210798;23;20416;-64
2023/03/10 08:30:23;;;;;;;72.68;36.17;;;;;;;0.52;100.00;98172.53;6208991;23;20035;-65
2023/03/10 08:32:50;;;;;;;64.40;35.53;;;;;;;0.77;100.00;98183.16;6208291;23;20016;-64
2023/03/10 08:35:17;;;;;;;66.25;35.97;;;;;;;0.61;100.00;98178.69;6209068;23;20017;-64
2023/03/10 08:37:43;;;;;;;59.10;33.85;;;;;;;0.53;100.00;98171.53;6209720;23;20024;-65
2023/03/10 08:40:12;;;;;;;73.03;35.92;;;;;;;0.74;100.00;98180.84;6201696;23;20092;-64
2023/03/10 08:42:39;;;;;;;64.28;34.00;;;;;;;0.94;100.00;98176.94;6209182;23;20202;-65
2023/03/10 08:45:06;;;;;;;64.38;34.33;;;;;;;1.09;100.00;98165.75;6182154;23;20020;-64
2023/03/10 08:47:34;;;;;;;58.63;31.30;;;;;;;0.93;100.00;98172.66;6210640;23;20031;-64
2023/03/10 08:50:02;;;;;;;58.20;31.13;;;;;;;1.10;100.00;98175.34;6210747;23;20021;-64
2023/03/10 08:52:29;;;;;;;63.17;31.58;;;;;;;1.56;100.00;98181.03;6183510;23;20043;-72
2023/03/10 08:54:55;;;;;;;51.40;29.15;;;;;;;1.49;100.00;98184.31;6208097;23;20026;-72
2023/03/10 08:57:25;;;;;;;56.47;28.75;;;;;;;1.72;100.00;98183.66;6209893;23;20326;-73
2023/03/10 08:59:51;;;;;;;54.95;29.58;;;;;;;2.24;100.00;98182.47;6208589;23;20032;-74
2023/03/10 09:02:20;;;;;;;59.88;32.35;;;;;;;3.57;100.00;98186.75;6209290;23;20047;-73
2023/03/10 09:04:48;;;;;;;42.15;23.35;;;;;;;3.13;100.00;98173.31;6209266;23;20024;-73
2023/03/10 09:07:15;;;;;;;38.28;21.95;;;;;;;3.61;100.00;98172.16;6205281;23;20021;-73
2023/03/10 09:09:42;;;;;;;34.78;20.80;;;;;;;3.94;100.00;98187.78;6209991;23;20024;-73
2023/03/10 09:12:10;;;;;;;32.47;18.50;;;;;;;3.84;100.00;98184.56;6208261;23;20048;-73
2023/03/10 09:14:37;;;;;;;32.97;18.23;;;;;;;4.12;100.00;98178.69;6207888;23;20059;-73
2023/03/10 09:17:04;;;;;;;27.98;16.10;;;;;;;4.33;100.00;98192.06;6209043;23;20017;-70
2023/03/10 09:19:30;;;;;;;27.67;16.10;;;;;;;4.33;100.00;98198.19;6209893;23;20031;-73
2023/03/10 09:21:58;;;;;;;26.77;16.15;;;;;;;3.89;100.00;98205.25;6207910;23;20464;-73
2023/03/10 09:24:24;;;;;;;29.08;17.45;;;;;;;3.86;100.00;98207.25;6209593;23;20020;-73
2023/03/10 09:26:51;;;;;;;31.05;19.35;;;;;;;3.70;100.00;98206.56;6207579;23;20351;-73
2023/03/10 09:29:17;;;;;;;33.17;20.15;;;;;;;3.97;100.00;98207.84;6210045;23;20353;-73
2023/03/10 09:31:45;;;;;;;42.47;22.92;;;;;;;3.96;100.00;98200.88;6208599;23;20024;-73
2023/03/10 09:34:12;;;;;;;33.42;21.00;;;;;;;3.92;100.00;98203.06;6210749;23;20024;-73
2023/03/10 09:36:39;;;;;;;34.00;20.77;;;;;;;4.10;100.00;98195.63;6208505;23;20024;-73
2023/03/10 09:39:05;;;;;;;33.50;20.60;;;;;;;4.27;100.00;98206.88;6206827;23;20027;-73
2023/03/10 09:42:02;;;;;;;30.70;20.35;;;;;;;4.15;100.00;98200.38;6208206;23;20416;-73
2023/03/10 09:44:46;;;;;;;33.45;20.98;;;;;;;4.43;100.00;98205.09;6209363;23;20020;-72
2023/03/10 09:47:48;;;;;;;33.80;22.45;;;;;;;4.46;100.00;98210.03;6182840;23;20024;-73
2023/03/10 09:50:39;;;;;;;26.98;16.92;;;;;;;4.54;100.00;98212.59;6087935;23;20049;-74
2023/03/10 09:53:16;;;;;;;31.48;17.10;;;;;;;4.60;100.00;98221.69;6087951;23;20015;-72
2023/03/10 09:55:44;;;;;;;30.05;18.58;;;;;;;4.48;100.00;98221.28;6086546;23;20453;-74
2023/03/10 09:58:27;;;;;;;35.80;20.50;;;;;;;4.61;100.00;98229.44;6087379;23;20037;-73
2023/03/10 10:00:53;;;;;;;39.92;21.45;;;;;;;4.50;100.00;98221.94;6085263;23;20029;-73
2023/03/10 10:03:22;;;;;;;34.08;20.83;;;;;;;4.30;100.00;98219.78;6088035;23;20097;-73
2023/03/10 10:05:52;;;;;;;28.48;18.65;;;;;;;4.33;100.00;98223.91;6087576;23;20026;-73
2023/03/10 10:08:23;;;;;;;36.85;20.80;;;;;;;4.20;100.00;98229.81;6089232;23;20032;-73
2023/03/10 10:10:57;;;;;;;26.00;17.33;;;;;;;4.22;100.00;98232.31;6088065;23;20109;-73
2023/03/10 10:13:26;;;;;;;36.78;21.88;;;;;;;4.33;100.00;98224.72;6091446;23;20456;-74
2023/03/10 10:16:06;;;;;;;36.38;21.75;;;;;;;4.40;100.00;98229.34;6089591;23;20022;-73
2023/03/10 10:19:02;;;;;;;35.17;20.63;;;;;;;4.82;100.00;98232.19;6088774;23;20030;-74
2023/03/10 10:21:40;;;;;;;32.70;19.67;;;;;;;4.99;100.00;98229.34;6089451;23;20372;-73
2023/03/10 10:24:09;;;;;;;31.38;18.77;;;;;;;4.85;100.00;98231.00;6140336;23;20024;-73
2023/03/10 10:26:35;;;;;;;29.85;18.40;;;;;;;4.81;100.00;98243.00;6207983;23;20027;-72
2023/03/10 10:29:14;;;;;;;29.60;18.40;;;;;;;4.87;100.00;98249.41;6211176;23;20021;-73
2023/03/10 10:31:40;;;;;;;31.25;17.75;;;;;;;4.94;100.00;98243.19;6206881;23;20040;-73
2023/03/10 10:34:22;;;;;;;27.65;16.30;;;;;;;5.22;100.00;98246.00;6209389;23;20107;-73
2023/03/10 10:36:51;;;;;;;;;;;;;;;4.96;100.00;98258.94;6210565;23;20335;-73
2023/03/10 10:39:31;;;;;;;28.40;14.43;;;;;;;4.87;100.00;98254.72;6209253;23;19916;-72
2023/03/10 10:42:23;;;;;;;25.55;14.05;;;;;;;5.06;100.00;98256.81;6208337;23;20021;-73
2023/03/10 10:44:55;;;;;;;22.48;13.90;;;;;;;5.00;100.00;98268.19;6208652;23;20020;-73
2023/03/10 10:47:26;;;;;;;20.98;13.35;;;;;;;4.91;100.00;98258.69;6207359;23;20092;-73
2023/03/10 10:49:54;;;;;;;20.13;12.25;;;;;;;4.97;100.00;98263.22;6210960;23;20449;-73
2023/03/10 10:52:24;;;;;;;19.08;11.77;;;;;;;5.29;100.00;98268.16;6209388;23;20024;-73
2023/03/10 10:54:57;;;;;;;17.98;12.10;;;;;;;5.24;100.00;98267.06;6210361;23;20115;-73
2023/03/10 10:57:34;;;;;;;18.90;10.90;;;;;;;5.17;100.00;98264.31;6210395;23;20020;-73
2023/03/10 11:00:23;;;;;;;21.98;11.43;;;;;;;5.29;100.00;98267.34;6211742;23;20091;-74
2023/03/10 11:02:50;;;;;;;19.05;11.85;;;;;;;5.46;100.00;98266.09;6207460;23;20331;-73
2023/03/10 11:05:16;;;;;;;17.92;12.10;;;;;;;5.56;100.00;98264.97;6210256;23;20087;-73
2023/03/10 11:07:44;;;;;;;18.88;11.68;;;;;;;5.01;100.00;98268.00;6207522;23;20025;-73
2023/03/10 11:10:16;;;;;;;18.48;11.55;;;;;;;5.17;100.00;98264.31;6212841;23;20471;-74
2023/03/10 11:13:05;;;;;;;19.10;12.32;;;;;;;5.26;100.00;98273.84;6208134;23;20008;-74
2023/03/10 11:15:36;;;;;;;21.77;12.98;;;;;;;5.19;100.00;98257.00;6211531;23;20464;-73
2023/03/10 11:18:16;;;;;;;21.20;14.07;;;;;;;5.20;100.00;98263.94;6211032;23;20020;-73
2023/03/10 11:21:05;;;;;;;20.05;13.23;;;;;;;5.16;100.00;98262.69;6208037;23;20024;-73
2023/03/10 11:24:15;;;;;;;25.15;14.70;;;;;;;5.04;100.00;98265.00;6209281;23;20078;-74
2023/03/10 11:26:57;;;;;;;28.00;16.08;;;;;;;4.84;100.00;98265.72;6207159;23;20410;-73